Time;durP1;ratioP1;P1;durP2;ratioP2;P2;SDS_P1;SDS_P2;PMS_P1;PMS_P2;Temp;Humidity;BMP_temperature;BMP_pressure;BME280_temperature;BME280_humidity;BME280_pressure;Samples;Min_cycle;Max_cycle;Signal;HPM_P1;HPM_P2
2021/10/23 00:00:37;;;;;;;5.63;3.47;;;11.80;1.00;;;;;;5070355;28;20210;-80
2021/10/23 00:03:04;;;;;;;7.32;3.38;;;11.80;1.00;;;;;;5072523;28;20226;-78
2021/10/23 00:05:31;;;;;;;8.57;3.60;;;11.90;1.00;;;;;;5074229;28;20205;-77
2021/10/23 00:07:59;;;;;;;4.40;2.97;;;12.10;1.00;;;;;;5073686;28;20644;-80
2021/10/23 00:10:27;;;;;;;8.88;3.53;;;12.10;1.00;;;;;;5074171;28;20628;-82
2021/10/23 00:12:53;;;;;;;5.05;3.50;;;12.00;1.00;;;;;;5074068;28;20264;-79
2021/10/23 00:15:21;;;;;;;3.83;2.83;;;12.00;1.00;;;;;;5074156;28;20202;-81
2021/10/23 00:17:48;;;;;;;8.75;2.85;;;12.10;1.00;;;;;;5074212;28;20256;-79
2021/10/23 00:20:15;;;;;;;4.35;3.13;;;12.00;1.00;;;;;;5073497;28;20202;-79
2021/10/23 00:22:42;;;;;;;5.00;3.15;;;11.90;1.00;;;;;;5073905;28;20705;-78
2021/10/23 00:25:11;;;;;;;5.10;3.03;;;11.90;1.00;;;;;;5073400;28;20206;-78
2021/10/23 00:27:38;;;;;;;4.10;2.58;;;11.90;1.00;;;;;;5073832;28;20206;-78
2021/10/23 00:30:06;;;;;;;4.53;2.40;;;11.80;1.00;;;;;;5073079;28;20210;-78
2021/10/23 00:32:33;;;;;;;3.67;2.70;;;11.70;1.00;;;;;;5073950;28;20237;-79
2021/10/23 00:35:00;;;;;;;2.95;2.42;;;11.70;1.00;;;;;;5073685;28;20271;-81
2021/10/23 00:37:27;;;;;;;5.05;2.42;;;11.60;1.00;;;;;;5079819;28;20218;-79
2021/10/23 00:39:54;;;;;;;4.15;2.08;;;11.40;1.00;;;;;;5074209;28;20604;-80
2021/10/23 00:42:23;;;;;;;5.15;2.22;;;11.40;1.00;;;;;;5074085;28;20673;-85
2021/10/23 00:44:50;;;;;;;4.15;2.10;;;11.40;1.00;;;;;;5073999;28;20206;-87
2021/10/23 00:47:20;;;;;;;2.80;2.08;;;11.40;1.00;;;;;;5074429;28;20685;-85
2021/10/23 00:49:51;;;;;;;4.70;2.40;;;11.40;1.00;;;;;;5060725;28;20735;-85
2021/10/23 00:52:20;;;;;;;3.83;2.45;;;11.30;1.00;;;;;;5074851;28;20206;-84
2021/10/23 00:54:47;;;;;;;6.57;1.65;;;11.30;1.00;;;;;;5074374;28;20267;-86
2021/10/23 00:57:15;;;;;;;7.75;2.28;;;11.20;1.00;;;;;;5074511;28;20293;-82
2021/10/23 00:59:44;;;;;;;3.45;2.10;;;11.20;1.00;;;;;;5073776;28;20206;-80
2021/10/23 01:02:11;;;;;;;4.60;2.00;;;11.10;1.00;;;;;;5073722;28;20209;-82
2021/10/23 01:04:39;;;;;;;4.30;2.17;;;11.00;1.00;;;;;;5074949;28;20233;-81
2021/10/23 01:07:06;;;;;;;3.67;1.90;;;11.00;1.00;;;;;;5074662;28;20202;-83
2021/10/23 01:09:35;;;;;;;6.53;2.30;;;11.00;1.00;;;;;;5077758;28;20614;-81
2021/10/23 01:12:05;;;;;;;5.10;2.72;;;11.00;1.00;;;;;;5073523;28;20256;-88
2021/10/23 01:14:33;;;;;;;3.58;1.80;;;11.00;1.00;;;;;;5073163;28;20260;-84
2021/10/23 01:17:01;;;;;;;4.60;1.53;;;11.00;1.00;;;;;;5072991;28;20643;-80
2021/10/23 01:19:28;;;;;;;5.67;1.97;;;10.90;1.00;;;;;;5073368;28;20214;-80
2021/10/23 01:21:56;;;;;;;4.20;1.60;;;10.90;1.00;;;;;;5072902;28;20210;-81
2021/10/23 01:24:24;;;;;;;5.40;2.00;;;10.90;1.00;;;;;;5072813;28;20291;-82
2021/10/23 01:26:52;;;;;;;4.83;1.80;;;10.90;1.00;;;;;;5072770;28;20293;-82
2021/10/23 01:29:20;;;;;;;2.67;1.30;;;10.90;1.00;;;;;;5073206;28;20617;-82
2021/10/23 01:31:48;;;;;;;8.50;2.70;;;10.90;1.00;;;;;;5072811;28;20678;-82
2021/10/23 01:34:17;;;;;;;5.77;1.87;;;10.80;1.00;;;;;;5072841;28;20570;-81
2021/10/23 01:36:47;;;;;;;2.77;1.47;;;10.80;1.00;;;;;;5072522;28;20297;-80
2021/10/23 01:39:16;;;;;;;3.83;1.90;;;10.70;1.00;;;;;;5071614;28;20279;-80
2021/10/23 01:41:43;;;;;;;2.70;1.57;;;10.70;1.00;;;;;;5072890;28;20202;-81
2021/10/23 01:44:12;;;;;;;4.07;1.57;;;10.70;1.00;;;;;;5072106;28;20241;-82
2021/10/23 01:46:39;;;;;;;4.60;1.60;;;10.60;1.00;;;;;;5072918;28;20206;-86
2021/10/23 01:49:07;;;;;;;12.07;3.93;;;10.60;1.00;;;;;;5072165;28;20214;-82
2021/10/23 01:51:35;;;;;;;2.63;1.83;;;10.60;1.00;;;;;;5072974;28;20206;-81
2021/10/23 01:54:04;;;;;;;3.53;1.60;;;10.50;1.00;;;;;;5072062;28;20206;-88
2021/10/23 01:56:32;;;;;;;3.43;2.07;;;10.40;1.00;;;;;;5072454;28;20206;-85
2021/10/23 01:58:59;;;;;;;6.43;1.87;;;10.40;1.00;;;;;;5072256;28;20215;-84
2021/10/23 02:01:27;;;;;;;4.57;1.63;;;10.50;1.00;;;;;;5072634;28;20201;-85
2021/10/23 02:03:54;;;;;;;6.30;1.63;;;10.50;1.00;;;;;;5072448;28;20291;-81
2021/10/23 02:06:21;;;;;;;3.40;1.60;;;10.40;1.00;;;;;;5072042;28;20218;-86
2021/10/23 02:08:48;;;;;;;4.20;1.43;;;10.40;1.00;;;;;;5072794;28;20272;-80
2021/10/23 02:11:16;;;;;;;5.47;1.67;;;10.40;1.00;;;;;;5071967;28;20255;-81
2021/10/23 02:13:44;;;;;;;4.80;1.67;;;10.40;1.00;;;;;;5072341;28;20281;-80
2021/10/23 02:16:12;;;;;;;2.20;1.57;;;10.30;1.00;;;;;;5074768;28;20282;-80
2021/10/23 02:18:39;;;;;;;2.47;1.50;;;10.30;1.00;;;;;;5091884;28;20727;-82
2021/10/23 02:21:07;;;;;;;3.00;1.47;;;10.30;1.00;;;;;;5091551;28;20213;-81
2021/10/23 02:23:35;;;;;;;5.60;1.90;;;10.20;1.00;;;;;;5077810;28;20225;-81
2021/10/23 02:26:02;;;;;;;4.10;1.80;;;10.30;1.00;;;;;;5090528;28;20747;-78
2021/10/23 02:28:29;;;;;;;6.63;2.20;;;10.20;1.00;;;;;;5091783;28;20608;-79
2021/10/23 02:30:58;;;;;;;2.30;1.53;;;10.20;1.00;;;;;;5091340;28;20560;-79
2021/10/23 02:33:25;;;;;;;3.40;2.07;;;10.30;1.00;;;;;;5091924;28;20209;-83
2021/10/23 02:35:52;;;;;;;5.53;1.90;;;10.20;1.00;;;;;;5091173;28;20216;-77
2021/10/23 02:38:19;;;;;;;5.37;1.67;;;10.10;1.00;;;;;;5091484;28;20213;-77
2021/10/23 02:40:46;;;;;;;6.57;3.43;;;10.00;1.00;;;;;;5091998;28;20205;-78
2021/10/23 02:43:13;;;;;;;3.77;2.10;;;10.10;1.00;;;;;;5091161;28;20739;-78
2021/10/23 02:45:41;;;;;;;5.90;3.10;;;10.00;1.00;;;;;;5091448;28;20197;-79
2021/10/23 02:48:09;;;;;;;5.03;2.10;;;10.10;1.00;;;;;;5091143;28;20209;-83
2021/10/23 02:50:36;;;;;;;3.20;2.33;;;10.00;1.00;;;;;;5091466;28;20205;-83
2021/10/23 02:53:04;;;;;;;6.17;3.90;;;10.00;1.00;;;;;;5090920;28;20692;-82
2021/10/23 02:55:31;;;;;;;6.50;2.30;;;10.00;1.00;;;;;;5091540;28;20208;-83
2021/10/23 02:57:58;;;;;;;4.03;2.00;;;9.90;1.00;;;;;;5091173;28;20213;-83
2021/10/23 03:00:25;;;;;;;6.90;2.47;;;9.90;1.00;;;;;;5090794;28;20197;-82
2021/10/23 03:02:53;;;;;;;8.07;4.20;;;9.70;1.00;;;;;;5090783;28;20664;-81
2021/10/23 03:05:21;;;;;;;3.37;1.70;;;9.70;1.00;;;;;;5090674;28;20661;-82
2021/10/23 03:07:49;;;;;;;5.47;2.13;;;9.80;1.00;;;;;;5091822;28;20213;-82
2021/10/23 03:10:16;;;;;;;3.77;2.03;;;9.90;1.00;;;;;;5091332;28;20198;-82
2021/10/23 03:12:43;;;;;;;4.97;2.30;;;9.80;1.00;;;;;;5091512;28;20692;-84
2021/10/23 03:15:11;;;;;;;2.70;1.60;;;9.80;1.00;;;;;;5090774;28;20624;-81
2021/10/23 03:17:38;;;;;;;6.70;2.10;;;9.80;1.00;;;;;;5091419;28;20258;-79
2021/10/23 03:20:06;;;;;;;3.40;2.03;;;9.70;1.00;;;;;;5078037;28;20206;-79
2021/10/23 03:22:35;;;;;;;4.33;2.40;;;9.60;1.00;;;;;;5090308;28;20206;-81
2021/10/23 03:25:02;;;;;;;4.50;1.87;;;9.60;1.00;;;;;;5090758;28;20271;-85
2021/10/23 03:27:29;;;;;;;6.27;2.23;;;9.50;1.00;;;;;;5091098;28;20254;-84
2021/10/23 03:29:56;;;;;;;5.80;2.30;;;9.50;1.00;;;;;;5091198;28;20214;-85
2021/10/23 03:32:23;;;;;;;2.50;1.80;;;9.50;1.00;;;;;;5090960;28;20634;-85
2021/10/23 03:34:54;;;;;;;5.83;2.53;;;9.60;1.00;;;;;;5090840;28;20205;-78
2021/10/23 03:37:21;;;;;;;3.80;1.43;;;9.60;1.00;;;;;;5090544;28;20300;-80
2021/10/23 03:39:50;;;;;;;4.97;2.33;;;9.60;1.00;;;;;;5062648;28;20665;-82
2021/10/23 03:42:17;;;;;;;3.50;2.23;;;9.60;1.00;;;;;;5090924;28;20205;-82
2021/10/23 03:44:44;;;;;;;7.07;2.60;;;9.60;1.00;;;;;;5090416;28;20225;-82
2021/10/23 03:47:11;;;;;;;5.93;3.33;;;9.50;1.00;;;;;;5090607;28;20278;-83
2021/10/23 03:49:41;;;;;;;7.27;3.73;;;9.50;1.00;;;;;;5090510;28;20270;-83
2021/10/23 03:52:08;;;;;;;6.70;3.77;;;9.40;1.00;;;;;;5090440;28;20232;-84
2021/10/23 03:54:35;;;;;;;15.70;13.17;;;9.40;1.00;;;;;;5090538;28;20627;-83
2021/10/23 03:57:04;;;;;;;14.13;12.73;;;9.40;1.00;;;;;;5090370;28;20213;-84
2021/10/23 03:59:31;;;;;;;13.27;12.03;;;9.40;1.00;;;;;;5090386;28;20669;-81
2021/10/23 04:01:59;;;;;;;16.27;12.63;;;9.50;1.00;;;;;;5090510;28;20213;-83
2021/10/23 04:04:26;;;;;;;14.17;12.70;;;9.50;1.00;;;;;;5090548;28;20260;-81
2021/10/23 04:06:54;;;;;;;16.53;13.83;;;9.60;1.00;;;;;;5090363;28;20213;-84
2021/10/23 04:09:21;;;;;;;14.90;12.97;;;9.60;1.00;;;;;;5090981;28;20242;-81
2021/10/23 04:11:48;;;;;;;13.77;12.23;;;9.50;1.00;;;;;;5090873;28;20205;-83
2021/10/23 04:14:16;;;;;;;15.87;11.87;;;9.50;1.00;;;;;;5090349;28;20263;-83
2021/10/23 04:16:43;;;;;;;13.43;10.47;;;9.40;1.00;;;;;;5090021;28;20213;-83
2021/10/23 04:19:10;;;;;;;9.73;8.80;;;9.40;1.00;;;;;;5089851;28;20673;-83
2021/10/23 04:21:37;;;;;;;12.23;8.80;;;9.30;1.00;;;;;;5090300;28;20205;-85
2021/10/23 04:24:05;;;;;;;8.17;7.27;;;9.30;1.00;;;;;;5090216;28;20322;-82
2021/10/23 04:26:32;;;;;;;8.30;6.63;;;9.30;1.00;;;;;;5090407;28;20665;-84
2021/10/23 04:28:59;;;;;;;7.67;5.43;;;9.20;1.00;;;;;;5089683;28;20681;-84
2021/10/23 04:31:27;;;;;;;8.30;5.17;;;9.20;1.00;;;;;;5090544;28;20223;-82
2021/10/23 04:33:54;;;;;;;5.97;5.10;;;9.20;1.00;;;;;;5076447;28;20256;-81
2021/10/23 04:36:21;;;;;;;5.30;4.60;;;9.30;1.00;;;;;;5090175;28;20206;-80
2021/10/23 04:38:49;;;;;;;5.00;3.23;;;9.30;1.00;;;;;;5090769;28;20213;-87
2021/10/23 04:41:16;;;;;;;6.23;3.90;;;9.40;1.00;;;;;;5090357;28;20209;-85
2021/10/23 04:43:43;;;;;;;6.83;2.73;;;9.30;1.00;;;;;;5090379;28;20213;-84
2021/10/23 04:46:10;;;;;;;5.90;2.77;;;9.30;1.00;;;;;;5075404;28;20252;-85
2021/10/23 04:48:39;;;;;;;6.93;2.63;;;9.30;1.00;;;;;;5092569;28;20201;-84
2021/10/23 04:51:06;;;;;;;3.97;2.07;;;9.20;1.00;;;;;;5093845;28;20259;-85
2021/10/23 04:53:33;;;;;;;9.60;3.13;;;9.20;1.00;;;;;;5093922;28;20197;-85
2021/10/23 04:56:00;;;;;;;4.57;3.00;;;9.20;1.00;;;;;;5093507;28;20626;-86
2021/10/23 04:58:27;;;;;;;4.37;3.00;;;9.20;1.00;;;;;;5079658;28;20213;-85
2021/10/23 05:00:56;;;;;;;3.77;2.87;;;9.20;1.00;;;;;;5092597;28;20593;-82
2021/10/23 05:03:23;;;;;;;3.13;2.20;;;9.20;1.00;;;;;;5093398;28;20201;-81
2021/10/23 05:05:52;;;;;;;10.47;3.37;;;9.20;1.00;;;;;;5093311;28;20720;-81
2021/10/23 05:08:19;;;;;;;3.93;2.33;;;9.10;1.00;;;;;;5093645;28;20209;-80
2021/10/23 05:10:46;;;;;;;6.57;3.20;;;9.00;1.00;;;;;;5093838;28;20201;-81
2021/10/23 05:13:13;;;;;;;10.87;4.97;;;9.00;1.00;;;;;;5092676;28;20681;-81
2021/10/23 05:15:40;;;;;;;7.60;3.77;;;8.90;1.00;;;;;;5092982;28;20291;-81
2021/10/23 05:18:07;;;;;;;4.23;3.47;;;8.90;1.00;;;;;;5092684;28;20707;-81
2021/10/23 05:20:35;;;;;;;6.90;3.30;;;8.80;1.00;;;;;;5093079;28;20271;-81
2021/10/23 05:23:03;;;;;;;5.40;3.20;;;8.80;1.00;;;;;;5092945;28;20213;-80
2021/10/23 05:25:31;;;;;;;5.03;2.70;;;8.70;1.00;;;;;;5092769;28;20233;-80
2021/10/23 05:27:58;;;;;;;4.73;3.13;;;8.80;1.00;;;;;;5092417;28;20210;-79
2021/10/23 05:30:25;;;;;;;3.97;2.20;;;8.80;1.00;;;;;;5092661;28;20209;-82
2021/10/23 05:32:52;;;;;;;3.13;1.90;;;8.80;1.00;;;;;;5092586;28;20251;-80
2021/10/23 05:35:19;;;;;;;4.77;2.90;;;8.80;1.00;;;;;;5093493;28;20259;-84
2021/10/23 05:37:46;;;;;;;6.43;3.27;;;8.80;1.00;;;;;;5093028;28;20573;-84
2021/10/23 05:40:15;;;;;;;4.70;3.23;;;8.80;1.00;;;;;;5092518;28;20206;-80
2021/10/23 05:42:42;;;;;;;5.57;3.13;;;8.70;1.00;;;;;;5090545;28;20213;-80
2021/10/23 05:45:10;;;;;;;4.00;2.53;;;8.80;1.00;;;;;;5079854;28;20279;-85
2021/10/23 05:47:37;;;;;;;4.90;2.80;;;8.70;1.00;;;;;;5092750;28;20205;-82
2021/10/23 05:50:04;;;;;;;3.33;2.93;;;8.70;1.00;;;;;;5092457;28;20205;-80
2021/10/23 05:52:31;;;;;;;4.93;2.57;;;8.70;1.00;;;;;;5092826;28;20262;-80
2021/10/23 05:54:58;;;;;;;9.40;3.40;;;8.70;1.00;;;;;;5087554;28;20202;-82
2021/10/23 05:57:27;;;;;;;9.93;3.33;;;8.80;1.00;;;;;;5083214;28;20209;-80
2021/10/23 05:59:54;;;;;;;6.90;3.00;;;9.00;1.00;;;;;;5091870;28;20197;-79
2021/10/23 06:02:24;;;;;;;4.80;2.80;;;9.10;1.00;;;;;;5092475;28;20205;-77
2021/10/23 06:04:52;;;;;;;4.10;2.63;;;9.20;1.00;;;;;;5092008;28;20233;-76
2021/10/23 06:07:20;;;;;;;11.10;3.90;;;9.20;1.00;;;;;;5092776;28;20258;-76
2021/10/23 06:09:47;;;;;;;6.37;2.90;;;9.30;1.00;;;;;;5092047;28;20247;-76
2021/10/23 06:12:14;;;;;;;11.23;3.90;;;9.50;1.00;;;;;;5092380;28;20209;-82
2021/10/23 06:14:43;;;;;;;4.77;2.77;;;9.60;1.00;;;;;;5091874;28;20209;-81
2021/10/23 06:17:10;;;;;;;9.67;3.73;;;9.70;1.00;;;;;;5091630;28;20206;-82
2021/10/23 06:19:38;;;;;;;4.33;3.03;;;9.70;1.00;;;;;;5092187;28;20250;-83
2021/10/23 06:22:06;;;;;;;4.80;4.00;;;9.80;1.00;;;;;;5075282;28;20205;-82
2021/10/23 06:24:34;;;;;;;7.27;4.10;;;9.70;1.00;;;;;;5081757;28;20240;-82
2021/10/23 06:27:01;;;;;;;8.33;3.80;;;9.80;1.00;;;;;;5091889;28;20213;-76
2021/10/23 06:29:29;;;;;;;6.17;3.50;;;9.90;1.00;;;;;;5091521;28;20205;-84
2021/10/23 06:31:58;;;;;;;8.83;5.93;;;10.00;1.00;;;;;;5090699;28;20270;-83
2021/10/23 06:34:25;;;;;;;4.77;3.33;;;10.00;1.00;;;;;;5091220;28;20209;-82
2021/10/23 06:36:52;;;;;;;6.33;3.83;;;9.90;1.00;;;;;;5091801;28;20202;-82
2021/10/23 06:39:19;;;;;;;5.20;3.47;;;10.00;1.00;;;;;;5077503;28;20743;-83
2021/10/23 06:41:46;;;;;;;4.73;3.73;;;10.10;1.00;;;;;;5092344;28;20256;-82
2021/10/23 06:44:13;;;;;;;7.40;3.13;;;10.10;1.00;;;;;;5090624;28;20244;-81
2021/10/23 06:46:41;;;;;;;6.33;3.33;;;10.30;1.00;;;;;;5091314;28;20197;-83
2021/10/23 06:49:10;;;;;;;5.07;3.20;;;10.30;1.00;;;;;;5091365;28;20329;-83
2021/10/23 06:51:38;;;;;;;7.50;2.73;;;10.40;1.00;;;;;;5077272;28;20209;-80
2021/10/23 06:54:06;;;;;;;4.40;3.83;;;10.40;1.00;;;;;;5090962;28;20668;-82
2021/10/23 06:56:35;;;;;;;6.83;3.77;;;10.50;1.00;;;;;;5089585;28;20210;-80
2021/10/23 06:59:02;;;;;;;8.03;4.83;;;10.60;1.00;;;;;;5089364;28;20567;-79
2021/10/23 07:01:29;;;;;;;7.60;4.53;;;10.50;1.00;;;;;;5069852;28;20627;-79
2021/10/23 07:03:56;;;;;;;7.27;5.37;;;10.50;1.00;;;;;;5085644;28;20282;-79
2021/10/23 07:06:24;;;;;;;7.07;4.67;;;10.70;1.00;;;;;;5064508;28;20292;-79
2021/10/23 07:08:51;;;;;;;8.60;5.13;;;10.70;1.00;;;;;;5075203;28;20210;-79
2021/10/23 07:11:18;;;;;;;7.87;3.87;;;10.70;1.00;;;;;;5072856;28;20275;-81
2021/10/23 07:13:45;;;;;;;7.20;4.50;;;10.70;1.00;;;;;;5074054;28;20286;-79
2021/10/23 07:16:12;;;;;;;7.90;4.70;;;10.80;1.00;;;;;;5071514;28;20679;-80
2021/10/23 07:18:39;;;;;;;6.97;4.60;;;10.90;1.00;;;;;;5062269;28;20214;-81
2021/10/23 07:21:06;;;;;;;7.47;4.13;;;10.90;1.00;;;;;;5070228;28;20271;-80
2021/10/23 07:23:34;;;;;;;4.83;4.10;;;10.70;1.00;;;;;;5071432;28;20202;-80
2021/10/23 07:26:02;;;;;;;6.77;4.30;;;10.60;1.00;;;;;;5088519;28;20240;-80
2021/10/23 07:28:29;;;;;;;7.87;5.10;;;10.80;1.00;;;;;;5080255;28;20203;-80
2021/10/23 07:30:56;;;;;;;8.10;3.77;;;10.90;1.00;;;;;;5071340;28;20202;-80
2021/10/23 07:33:23;;;;;;;8.30;4.47;;;11.10;1.00;;;;;;5076219;28;20248;-79
2021/10/23 07:35:50;;;;;;;11.10;5.20;;;11.20;1.00;;;;;;5075384;28;20202;-80
2021/10/23 07:38:17;;;;;;;5.13;3.80;;;11.20;1.00;;;;;;5076953;28;20214;-78
2021/10/23 07:40:46;;;;;;;8.80;4.67;;;11.20;1.00;;;;;;5071699;28;20206;-77
2021/10/23 07:43:14;;;;;;;6.13;4.70;;;11.30;1.00;;;;;;5069716;28;20209;-78
2021/10/23 07:45:41;;;;;;;4.40;3.70;;;11.10;1.00;;;;;;5073003;28;20392;-78
2021/10/23 07:48:08;;;;;;;6.63;4.30;;;11.20;1.00;;;;;;5073457;28;20197;-79
2021/10/23 07:50:35;;;;;;;4.93;3.87;;;11.40;1.00;;;;;;5072273;28;20259;-79
2021/10/23 07:53:03;;;;;;;6.47;5.13;;;11.60;1.00;;;;;;5072911;28;20665;-80
2021/10/23 07:55:32;;;;;;;6.07;4.80;;;11.60;1.00;;;;;;5071277;28;20650;-79
2021/10/23 07:58:00;;;;;;;9.30;5.37;;;11.60;1.00;;;;;;5070179;28;20674;-81
2021/10/23 08:00:27;;;;;;;7.40;4.67;;;11.60;1.00;;;;;;5066414;28;20210;-81
2021/10/23 08:02:55;;;;;;;11.63;5.80;;;11.60;1.00;;;;;;5069782;28;20566;-79
2021/10/23 08:05:24;;;;;;;5.00;4.60;;;11.60;1.00;;;;;;5084162;28;20229;-79
2021/10/23 08:07:52;;;;;;;6.80;4.45;;;11.60;1.00;;;;;;5086444;28;20638;-82
2021/10/23 08:10:20;;;;;;;8.63;5.43;;;11.60;1.00;;;;;;5085778;28;20668;-79
2021/10/23 08:12:47;;;;;;;6.30;4.23;;;11.70;1.00;;;;;;5075220;28;20737;-84
2021/10/23 08:15:16;;;;;;;5.85;4.75;;;11.90;1.00;;;;;;5084162;28;20232;-82
2021/10/23 08:17:44;;;;;;;8.88;4.70;;;11.90;1.00;;;;;;5086061;28;20763;-81
2021/10/23 08:20:13;;;;;;;10.17;5.57;;;11.80;1.00;;;;;;5082517;28;20225;-84
2021/10/23 08:22:40;;;;;;;8.10;5.10;;;11.90;1.00;;;;;;5086559;28;20205;-81
2021/10/23 08:25:10;;;;;;;5.78;4.45;;;12.10;1.00;;;;;;5089307;28;20229;-81
2021/10/23 08:27:39;;;;;;;6.15;4.10;;;12.10;1.00;;;;;;5082770;28;20621;-81
2021/10/23 08:30:08;;;;;;;7.00;4.00;;;12.30;1.00;;;;;;5083083;28;20737;-79
2021/10/23 08:32:36;;;;;;;9.35;4.28;;;12.30;1.00;;;;;;5088545;28;20587;-82
2021/10/23 08:35:03;;;;;;;4.38;3.42;;;12.60;1.00;;;;;;5082628;28;20206;-80
2021/10/23 08:37:30;;;;;;;6.68;3.75;;;12.70;1.00;;;;;;5086717;28;20267;-80
2021/10/23 08:39:57;;;;;;;9.20;4.07;;;12.80;1.00;;;;;;5089551;28;20262;-81
2021/10/23 08:42:24;;;;;;;5.72;4.25;;;12.60;1.00;;;;;;5087385;28;20218;-77
2021/10/23 08:44:53;;;;;;;7.45;3.50;;;12.60;1.00;;;;;;5079176;28;20201;-81
2021/10/23 08:47:21;;;;;;;4.38;3.83;;;12.80;1.00;;;;;;5072014;28;20627;-78
2021/10/23 08:49:50;;;;;;;6.20;3.83;;;12.90;1.00;;;;;;5079347;28;20262;-78
2021/10/23 08:52:18;;;;;;;9.60;4.82;;;13.20;1.00;;;;;;5078244;28;20617;-78
2021/10/23 08:54:45;;;;;;;5.75;3.83;;;13.50;1.00;;;;;;5086153;28;20209;-83
2021/10/23 08:57:12;;;;;;;7.93;3.95;;;13.60;1.00;;;;;;5087862;28;20278;-79
2021/10/23 08:59:40;;;;;;;5.13;3.85;;;13.40;1.00;;;;;;5083542;28;20198;-83
2021/10/23 09:02:10;;;;;;;6.03;3.53;;;13.30;1.00;;;;;;5088235;28;20206;-81
2021/10/23 09:04:37;;;;;;;5.70;4.30;;;13.50;1.00;;;;;;5082704;28;20622;-82
2021/10/23 09:07:10;;;;;;;4.28;3.88;;;13.80;1.00;;;;;;5087658;28;20237;-79
2021/10/23 09:09:56;;;;;;;6.90;3.88;;;13.60;1.00;;;;;;5083611;28;20206;-77
2021/10/23 09:12:25;;;;;;;5.32;3.97;;;13.70;1.00;;;;;;5074362;28;20201;-79
2021/10/23 09:15:03;;;;;;;4.68;3.63;;;13.40;1.00;;;;;;5082397;28;20271;-78
2021/10/23 09:17:31;;;;;;;4.80;3.53;;;13.50;1.00;;;;;;5087695;28;20201;-78
2021/10/23 09:20:04;;;;;;;10.68;4.43;;;13.30;1.00;;;;;;5082223;28;20217;-79
2021/10/23 09:22:35;;;;;;;7.28;4.15;;;13.20;1.00;;;;;;5087489;28;20284;-78
2021/10/23 09:25:21;;;;;;;7.00;4.75;;;13.20;1.00;;;;;;5087221;28;20210;-80
2021/10/23 09:28:02;;;;;;;4.80;4.30;;;13.00;1.00;;;;;;5093039;28;20245;-78
2021/10/23 09:30:31;;;;;;;7.50;5.43;;;12.50;1.00;;;;;;5079680;28;20218;-80
2021/10/23 09:33:00;;;;;;;5.53;4.43;;;12.40;1.00;;;;;;5082887;28;20245;-83
2021/10/23 09:35:27;;;;;;;5.05;3.97;;;12.50;1.00;;;;;;5076781;28;20677;-80
2021/10/23 09:37:58;;;;;;;15.43;4.40;;;12.70;1.00;;;;;;5087317;28;20225;-80
2021/10/23 09:40:26;;;;;;;7.38;4.70;;;13.10;1.00;;;;;;5083755;28;20201;-79
2021/10/23 09:43:08;;;;;;;9.63;5.07;;;13.70;1.00;;;;;;5092249;28;20201;-79
2021/10/23 09:45:36;;;;;;;6.57;4.60;;;14.70;1.00;;;;;;5092822;28;20237;-81
2021/10/23 09:48:10;;;;;;;7.13;4.65;;;14.30;1.00;;;;;;5091837;28;20206;-78
2021/10/23 09:50:37;;;;;;;6.05;5.03;;;14.20;1.00;;;;;;5092226;28;20208;-79
2021/10/23 09:53:08;;;;;;;7.35;6.10;;;14.80;1.00;;;;;;5091994;28;20202;-78
2021/10/23 09:55:36;;;;;;;5.82;5.25;;;16.20;1.00;;;;;;5083283;28;20206;-79
2021/10/23 09:58:14;;;;;;;6.78;4.82;;;16.50;1.00;;;;;;5073325;28;20214;-78
2021/10/23 10:00:43;;;;;;;6.60;4.72;;;16.30;1.00;;;;;;5086971;28;20237;-78
2021/10/23 10:03:11;;;;;;;6.38;5.78;;;16.60;1.00;;;;;;5085526;28;20206;-78
2021/10/23 10:05:38;;;;;;;7.78;5.57;;;17.40;1.00;;;;;;5089507;28;20279;-76
2021/10/23 10:08:14;;;;;;;39.40;8.45;;;17.40;1.00;;;;;;5085645;28;20256;-76
2021/10/23 10:10:43;;;;;;;5.22;4.65;;;17.80;1.00;;;;;;5067573;28;20260;-77
2021/10/23 10:13:11;;;;;;;6.53;5.72;;;16.40;1.00;;;;;;5074604;28;20264;-76
2021/10/23 10:15:39;;;;;;;6.15;5.55;;;15.30;1.00;;;;;;5088352;28;20209;-76
2021/10/23 10:18:07;;;;;;;6.80;5.55;;;14.90;1.00;;;;;;5082852;28;20594;-77
2021/10/23 10:20:36;;;;;;;6.88;5.25;;;14.70;1.00;;;;;;5087014;28;20258;-76
2021/10/23 10:23:05;;;;;;;7.53;6.28;;;14.60;1.00;;;;;;5084470;28;20288;-77
2021/10/23 10:25:34;;;;;;;7.22;6.32;;;14.50;1.00;;;;;;5085611;28;20274;-78
2021/10/23 10:28:16;;;;;;;6.60;5.65;;;14.10;1.00;;;;;;5090712;28;20209;-77
2021/10/23 10:30:46;;;;;;;7.05;5.88;;;14.40;1.00;;;;;;5081491;28;20213;-78
2021/10/23 10:33:19;;;;;;;6.57;5.88;;;14.50;1.00;;;;;;5089623;28;20295;-78
2021/10/23 10:36:00;;;;;;;8.85;5.75;;;14.40;1.00;;;;;;5088549;28;20270;-79
2021/10/23 10:38:43;;;;;;;7.93;5.68;;;14.50;1.00;;;;;;5087873;28;20308;-78
2021/10/23 10:44:20;;;;;;;8.65;4.95;;;14.50;1.00;;;;;;5083786;28;20284;-80
2021/10/23 10:47:17;;;;;;;7.10;4.43;;;14.40;1.00;;;;;;5070727;28;20255;-79
2021/10/23 10:49:53;;;;;;;5.10;4.50;;;14.50;1.00;;;;;;5074384;28;20221;-78
2021/10/23 10:52:54;;;;;;;5.65;4.03;;;14.50;1.00;;;;;;5070562;28;20732;-83
2021/10/23 10:55:22;;;;;;;5.85;4.00;;;14.40;1.00;;;;;;5020221;28;20673;-84
2021/10/23 10:58:05;;;;;;;6.53;4.88;;;14.40;1.00;;;;;;5022812;28;20262;-78
2021/10/23 11:01:09;;;;;;;5.15;4.70;;;14.50;1.00;;;;;;5042416;28;20281;-80
2021/10/23 11:03:38;;;;;;;5.22;4.68;;;14.40;1.00;;;;;;5072053;28;20280;-83
2021/10/23 11:06:56;;;;;;;5.32;4.72;;;14.60;1.00;;;;;;5070711;28;20233;-79
2021/10/23 11:09:38;;;;;;;6.53;4.72;;;14.70;1.00;;;;;;5071352;28;20201;-84
2021/10/23 11:12:31;;;;;;;5.25;4.75;;;14.50;1.00;;;;;;5070813;28;20198;-81
2021/10/23 11:15:00;;;;;;;4.40;3.95;;;14.40;1.00;;;;;;5070715;28;20202;-78
2021/10/23 11:17:27;;;;;;;6.47;4.32;;;14.40;1.00;;;;;;5071085;28;20214;-79
2021/10/23 11:20:01;;;;;;;4.95;4.45;;;14.50;1.00;;;;;;5070835;28;20206;-82
2021/10/23 11:22:31;;;;;;;4.78;4.20;;;14.70;1.00;;;;;;5070944;28;20562;-81
2021/10/23 11:25:03;;;;;;;6.25;4.63;;;15.00;1.00;;;;;;5080346;28;20259;-85
2021/10/23 11:27:42;;;;;;;6.53;3.72;;;15.10;1.00;;;;;;5090771;28;20231;-85
2021/10/23 11:30:17;;;;;;;5.38;4.53;;;15.10;1.00;;;;;;5090246;28;20696;-77
2021/10/23 11:32:56;;;;;;;4.97;3.90;;;14.70;1.00;;;;;;5075041;28;20209;-79
2021/10/23 11:35:34;;;;;;;5.82;4.68;;;14.70;1.00;;;;;;5085432;28;20208;-78
2021/10/23 11:38:07;;;;;;;5.78;4.32;;;14.90;1.00;;;;;;5079201;28;20286;-78
2021/10/23 11:40:35;;;;;;;3.83;3.50;;;15.00;1.00;;;;;;5070737;28;20202;-78
2021/10/23 11:43:03;;;;;;;4.57;3.47;;;15.00;1.00;;;;;;5078066;28;20208;-77
2021/10/23 11:45:32;;;;;;;2.88;2.50;;;15.10;1.00;;;;;;5074368;28;20210;-79
2021/10/23 11:48:04;;;;;;;4.97;3.58;;;15.20;1.00;;;;;;5078422;28;20657;-76
2021/10/23 11:50:33;;;;;;;4.30;2.63;;;15.30;1.00;;;;;;5075017;28;20259;-76
2021/10/23 11:53:02;;;;;;;2.08;1.90;;;15.40;1.00;;;;;;5076429;28;20246;-76
2021/10/23 11:55:35;;;;;;;2.00;1.70;;;15.50;1.00;;;;;;5074094;28;20255;-76
2021/10/23 11:58:04;;;;;;;2.72;1.85;;;15.50;1.00;;;;;;5077692;28;20206;-76
2021/10/23 12:00:38;;;;;;;1.67;1.58;;;15.30;1.00;;;;;;5077147;28;20259;-76
2021/10/23 12:03:07;;;;;;;2.72;2.40;;;15.40;1.00;;;;;;5077423;28;20198;-77
2021/10/23 12:05:43;;;;;;;1.50;1.40;;;15.40;1.00;;;;;;5075671;28;20639;-76
2021/10/23 12:08:21;;;;;;;3.75;1.60;;;15.50;1.00;;;;;;5075971;28;20700;-76
2021/10/23 12:11:11;;;;;;;3.78;1.65;;;15.60;1.00;;;;;;5075321;28;20201;-76
2021/10/23 12:13:56;;;;;;;2.67;2.03;;;15.80;1.00;;;;;;5075004;28;20205;-76
2021/10/23 12:16:36;;;;;;;2.45;1.83;;;15.60;1.00;;;;;;5067530;28;20201;-77
2021/10/23 12:19:10;;;;;;;3.38;2.08;;;15.40;1.00;;;;;;5071637;28;20263;-76
2021/10/23 12:21:46;;;;;;;5.85;2.47;;;15.50;1.00;;;;;;5079440;28;20661;-76
2021/10/23 12:24:22;;;;;;;3.55;2.72;;;15.60;1.00;;;;;;5088625;28;20205;-76
2021/10/23 12:27:08;;;;;;;2.38;1.98;;;15.50;1.00;;;;;;5093765;28;20298;-76
2021/10/23 12:29:38;;;;;;;1.88;1.70;;;15.60;1.00;;;;;;5082899;28;20260;-76
2021/10/23 12:32:08;;;;;;;2.47;1.98;;;15.70;1.00;;;;;;5072709;28;20666;-76
2021/10/23 12:34:55;;;;;;;2.55;1.92;;;15.80;1.00;;;;;;5074404;28;20256;-77
2021/10/23 12:37:43;;;;;;;1.75;1.60;;;15.70;1.00;;;;;;5073771;28;20216;-77
2021/10/23 12:40:20;;;;;;;3.08;1.77;;;15.70;1.00;;;;;;5073596;28;20210;-77
2021/10/23 12:42:50;;;;;;;2.53;1.40;;;15.60;1.00;;;;;;5074328;28;20604;-77
2021/10/23 12:45:19;;;;;;;2.33;1.52;;;15.50;1.00;;;;;;5072552;28;20685;-78
2021/10/23 12:47:47;;;;;;;1.80;1.52;;;15.50;1.00;;;;;;5073798;28;20288;-79
2021/10/23 12:50:15;;;;;;;1.83;1.73;;;15.60;1.00;;;;;;5073643;28;20202;-77
2021/10/23 12:52:43;;;;;;;2.78;2.53;;;15.60;1.00;;;;;;5073355;28;20210;-77
2021/10/23 12:55:11;;;;;;;3.70;1.75;;;15.80;1.00;;;;;;5059617;28;20277;-77
2021/10/23 12:57:39;;;;;;;3.80;1.42;;;15.80;1.00;;;;;;5073312;28;20682;-76
2021/10/23 13:00:09;;;;;;;1.48;1.38;;;15.80;1.00;;;;;;5073109;28;20625;-77
2021/10/23 13:02:36;;;;;;;1.70;1.38;;;15.90;1.00;;;;;;5067497;28;20199;-77
2021/10/23 13:05:05;;;;;;;1.98;1.80;;;15.90;1.00;;;;;;5082665;28;20202;-77
2021/10/23 13:07:32;;;;;;;1.70;1.35;;;15.90;1.00;;;;;;5081146;28;20230;-76
2021/10/23 13:10:00;;;;;;;1.42;1.20;;;15.90;1.00;;;;;;5080208;28;20568;-77
2021/10/23 13:12:27;;;;;;;2.63;1.65;;;15.80;1.00;;;;;;5082890;28;20208;-77